Terminal Aerodrome Forecast
Issued by NWS

Current Version | Previous Version | Text Only | Print | Product List | Glossary On
Versions: 1 2 3 4 5 6 7 8 9 10 11 12 13 14 15 16 17
000
FTUS46 KPDT 271600 AAC
TAFBDN
TAF AMD
KBDN 271624Z 2716/2812 VRB03KT P6SM FEW028 BKN045
     FM271800 30005KT P6SM SCT028 BKN045
     FM272000 32008KT P6SM BKN060 OVC090
     FM272300 34010KT P6SM -RA BKN030 OVC045
     FM280400 36008KT 2SM -SN BKN004 OVC010=

USA.gov is the U.S. government's official web portal to all federal, state and local government web resources and services.